Time;durP1;ratioP1;P1;durP2;ratioP2;P2;SDS_P1;SDS_P2;PMS_P1;PMS_P2;Temp;Humidity;BMP_temperature;BMP_pressure;BME280_temperature;BME280_humidity;BME280_pressure;Samples;Min_cycle;Max_cycle;Signal;HPM_P1;HPM_P2
2023/04/30 00:01:43;;;;;;;5.28;4.10;;;10.90;99.90;;;10.46;100.00;97540.66;5055359;28;20063;-38
2023/04/30 00:04:09;;;;;;;6.65;4.07;;;10.90;99.90;;;10.47;100.00;97538.88;5057533;28;20556;-38
2023/04/30 00:06:35;;;;;;;7.70;4.57;;;10.90;99.90;;;10.40;100.00;97530.31;5055882;28;20527;-39
2023/04/30 00:09:01;;;;;;;6.45;4.00;;;10.90;99.90;;;10.47;100.00;97541.50;5047847;28;20040;-40
2023/04/30 00:11:26;;;;;;;7.22;5.05;;;10.90;99.90;;;10.43;100.00;97543.41;5058068;28;20027;-40
2023/04/30 00:13:52;;;;;;;5.22;4.00;;;10.90;99.90;;;10.42;100.00;97540.81;5059572;28;20036;-38
2023/04/30 00:16:18;;;;;;;7.00;4.03;;;10.90;99.90;;;10.36;100.00;97531.34;5057663;28;20021;-38
2023/04/30 00:18:44;;;;;;;5.45;4.35;;;10.90;99.90;;;10.36;100.00;97522.56;5058423;28;20496;-39
2023/04/30 00:21:10;;;;;;;6.53;4.35;;;10.90;99.90;;;10.39;100.00;97533.88;5059569;28;20115;-38
2023/04/30 00:23:36;;;;;;;5.18;3.83;;;10.90;99.90;;;10.38;100.00;97529.50;5057278;28;20365;-38
2023/04/30 00:26:02;;;;;;;8.23;5.60;;;10.80;99.90;;;10.39;100.00;97533.88;5058234;28;20035;-38
2023/04/30 00:28:28;;;;;;;5.03;4.22;;;10.80;99.90;;;10.36;100.00;97536.59;5058357;28;20024;-39
2023/04/30 00:30:53;;;;;;;6.00;4.03;;;10.80;99.90;;;10.35;100.00;97540.16;5056533;28;20039;-39
2023/04/30 00:33:19;;;;;;;5.60;4.10;;;10.80;99.90;;;10.31;100.00;97536.75;5057684;28;20036;-38
2023/04/30 00:35:45;;;;;;;6.32;4.13;;;10.80;99.90;;;10.31;100.00;97542.03;5053812;28;20088;-38
2023/04/30 00:38:12;;;;;;;4.50;3.60;;;10.80;99.90;;;10.30;100.00;97545.56;5053307;28;20107;-38
2023/04/30 00:40:40;;;;;;;6.07;3.63;;;10.80;99.90;;;10.29;100.00;97545.59;5055474;28;20033;-38
2023/04/30 00:43:06;;;;;;;5.57;4.18;;;10.80;99.90;;;10.28;100.00;97541.22;5037653;28;20115;-38
2023/04/30 00:45:32;;;;;;;6.25;4.50;;;10.70;99.90;;;10.27;100.00;97550.06;5058103;28;20437;-40
2023/04/30 00:47:58;;;;;;;5.65;3.95;;;10.70;99.90;;;10.27;100.00;97552.72;5058546;28;20028;-39
2023/04/30 00:50:23;;;;;;;5.85;4.35;;;10.70;99.90;;;10.27;100.00;97547.44;5057616;28;20046;-39
2023/04/30 00:52:50;;;;;;;6.45;4.15;;;10.70;99.90;;;10.28;100.00;97547.38;5039281;28;20025;-38
2023/04/30 00:55:16;;;;;;;6.72;4.82;;;10.70;99.90;;;10.28;100.00;97547.38;5057224;28;20128;-40
2023/04/30 00:57:42;;;;;;;7.47;4.82;;;10.70;99.90;;;10.26;100.00;97546.56;5054795;28;20024;-41
2023/04/30 01:00:10;;;;;;;7.65;5.10;;;10.70;99.90;;;10.26;100.00;97553.59;5059361;28;20031;-38
2023/04/30 01:02:37;;;;;;;7.38;4.90;;;10.70;99.90;;;10.25;100.00;97549.25;5057588;28;20212;-38
2023/04/30 01:05:03;;;;;;;6.30;4.60;;;10.70;99.90;;;10.26;100.00;97548.34;5057303;28;20547;-38
2023/04/30 01:07:30;;;;;;;6.97;4.88;;;10.70;99.90;;;10.22;100.00;97544.94;5055860;28;20032;-38
2023/04/30 01:09:57;;;;;;;7.55;4.82;;;10.70;99.90;;;10.24;100.00;97547.53;5037747;28;20040;-38
2023/04/30 01:12:37;;;;;;;6.72;5.03;;;10.70;99.90;;;10.23;100.00;97553.69;5057971;28;20047;-39
2023/04/30 01:15:35;;;;;;;6.53;4.82;;;10.70;99.90;;;10.19;100.00;97542.38;5039589;28;20032;-38
2023/04/30 01:18:17;;;;;;;8.27;4.07;;;10.70;99.90;;;10.22;100.00;97541.44;5035536;28;20036;-38
2023/04/30 01:20:58;;;;;;;7.60;5.30;;;10.70;99.90;;;10.22;100.00;97539.66;5052678;28;20055;-38
2023/04/30 01:24:05;;;;;;;6.68;4.55;;;10.70;99.90;;;10.19;100.00;97542.38;5066641;28;20040;-38
2023/04/30 01:27:08;;;;;;;8.50;5.22;;;10.60;99.90;;;10.13;100.00;97532.06;5056524;28;20476;-39
2023/04/30 01:29:36;;;;;;;7.70;5.18;;;10.60;99.90;;;10.09;100.00;97535.72;5056768;28;21581;-39
2023/04/30 01:32:02;;;;;;;7.15;5.10;;;10.60;99.90;;;10.10;100.00;97534.78;5043820;28;20493;-38
2023/04/30 01:34:28;;;;;;;7.32;4.97;;;10.60;99.90;;;10.08;100.00;97532.19;5061566;28;20060;-38
2023/04/30 01:37:15;;;;;;;8.18;5.70;;;10.50;99.90;;;10.09;100.00;97533.09;5062734;28;23210;-38
2023/04/30 01:40:20;;;;;;;7.53;5.50;;;10.50;99.90;;;10.09;100.00;97535.72;5043074;28;20059;-38
2023/04/30 01:43:03;;;;;;;7.72;5.40;;;10.50;99.90;;;10.06;100.00;97534.03;4958494;28;20067;-38
2023/04/30 01:45:37;;;;;;;;;;;10.50;99.90;;;10.03;100.00;97528.00;5042731;28;20060;-38
2023/04/30 01:48:20;;;;;;;8.80;6.95;;;10.50;99.90;;;10.01;100.00;97529.84;5061439;28;20003;-39
2023/04/30 01:50:57;;;;;;;10.18;5.82;;;10.50;99.90;;;9.99;100.00;97526.38;5041703;28;20127;-38
2023/04/30 01:53:33;;;;;;;10.90;6.82;;;10.50;99.90;;;9.85;100.00;97514.53;5043114;28;20216;-39
2023/04/30 01:56:03;;;;;;;9.88;6.82;;;10.40;99.90;;;9.92;100.00;97525.72;5044001;28;20028;-38
2023/04/30 01:58:31;;;;;;;10.02;6.93;;;10.40;99.90;;;9.91;100.00;97531.91;5041360;28;20458;-39
2023/04/30 02:00:56;;;;;;;12.40;7.07;;;10.40;99.90;;;9.84;100.00;97535.66;5041874;28;20476;-38
2023/04/30 02:03:22;;;;;;;10.68;7.90;;;10.30;99.90;;;9.79;100.00;97534.94;5060659;28;20043;-39
2023/04/30 02:05:49;;;;;;;10.55;7.05;;;10.30;99.90;;;9.77;100.00;97534.13;5057098;28;20111;-39
2023/04/30 02:08:14;;;;;;;9.15;7.22;;;10.20;99.90;;;9.73;100.00;97528.09;5060778;28;20464;-39
2023/04/30 02:10:40;;;;;;;11.63;8.05;;;10.20;99.90;;;9.71;100.00;97528.13;5058154;28;20376;-38
2023/04/30 02:13:06;;;;;;;9.05;6.63;;;10.20;99.90;;;9.71;100.00;97533.41;5058143;28;20036;-38
2023/04/30 02:15:31;;;;;;;12.32;7.03;;;10.20;99.90;;;9.59;100.00;97510.09;5057167;28;20523;-38
2023/04/30 02:17:57;;;;;;;12.38;7.55;;;10.20;99.90;;;9.63;100.00;97521.38;5057091;28;20036;-39
2023/04/30 02:20:23;;;;;;;11.05;6.95;;;10.10;99.90;;;9.60;100.00;97521.47;5045710;28;20032;-39
2023/04/30 02:22:50;;;;;;;12.10;7.82;;;10.10;99.90;;;9.54;100.00;97525.16;5059181;28;20040;-38
2023/04/30 02:25:15;;;;;;;10.32;7.82;;;10.10;99.90;;;9.54;100.00;97522.53;5060145;28;20500;-39
2023/04/30 02:27:41;;;;;;;11.95;7.75;;;10.10;99.90;;;9.54;100.00;97517.25;5058002;28;20147;-38
2023/04/30 02:30:07;;;;;;;11.70;7.93;;;10.00;99.90;;;9.54;100.00;97533.06;5059522;28;20060;-38
2023/04/30 02:32:33;;;;;;;14.27;8.35;;;10.00;99.90;;;9.48;100.00;97522.72;5058587;28;20032;-38
2023/04/30 02:34:59;;;;;;;10.07;7.80;;;10.00;99.90;;;9.48;100.00;97530.63;5060849;28;20865;-38
2023/04/30 02:37:25;;;;;;;10.40;8.00;;;10.00;99.90;;;9.47;100.00;97523.63;5058783;28;20032;-38
2023/04/30 02:39:52;;;;;;;13.30;9.07;;;10.00;99.90;;;9.48;100.00;97530.63;5058056;28;20063;-39
2023/04/30 02:42:18;;;;;;;10.95;7.60;;;10.00;99.90;;;9.46;100.00;97529.81;5055453;28;20510;-39
2023/04/30 02:44:44;;;;;;;13.18;9.10;;;9.90;99.90;;;9.45;100.00;97533.34;5058063;28;20028;-38
2023/04/30 02:47:09;;;;;;;9.25;7.28;;;9.90;99.90;;;9.45;100.00;97536.81;5059815;28;20055;-38
2023/04/30 02:49:35;;;;;;;11.07;8.40;;;9.90;99.90;;;9.44;100.00;97531.59;5059313;28;20020;-38
2023/04/30 02:52:01;;;;;;;11.63;7.93;;;9.90;99.90;;;9.41;100.00;97526.47;5059625;28;20082;-38
2023/04/30 02:54:26;;;;;;;14.15;8.40;;;9.90;99.90;;;9.47;100.00;97516.56;5057800;28;20033;-38
2023/04/30 02:56:52;;;;;;;10.50;7.90;;;9.90;99.90;;;9.44;100.00;97521.97;5058882;28;20208;-38
2023/04/30 02:59:18;;;;;;;12.57;8.43;;;9.90;99.90;;;9.44;100.00;97527.22;5057764;28;20032;-38
2023/04/30 03:01:44;;;;;;;11.18;8.05;;;9.90;99.90;;;9.41;100.00;97531.72;5057946;28;20429;-38
2023/04/30 03:04:09;;;;;;;10.90;7.88;;;9.90;99.90;;;9.29;100.00;97518.00;5059776;28;20036;-38
2023/04/30 03:06:35;;;;;;;13.90;9.40;;;9.90;99.90;;;9.34;100.00;97525.78;5058523;28;20059;-39
2023/04/30 03:09:01;;;;;;;14.82;10.10;;;9.90;99.90;;;9.24;100.00;97512.03;5059633;28;20072;-38
2023/04/30 03:11:26;;;;;;;13.07;8.90;;;9.90;99.90;;;9.26;100.00;97517.22;5059278;28;20032;-38
2023/04/30 03:13:52;;;;;;;10.32;8.30;;;9.80;99.90;;;9.32;100.00;97524.97;5057618;28;20282;-38
2023/04/30 03:16:20;;;;;;;10.20;7.97;;;9.90;99.90;;;9.32;100.00;97531.06;5057794;28;20422;-38
2023/04/30 03:18:47;;;;;;;9.48;7.75;;;9.80;99.90;;;9.30;100.00;97521.50;5060453;28;20062;-38
2023/04/30 03:21:12;;;;;;;11.27;8.05;;;9.80;99.90;;;9.28;100.00;97523.34;5057615;28;20115;-38
2023/04/30 03:23:38;;;;;;;10.88;8.80;;;9.80;99.90;;;9.23;100.00;97515.56;5058027;28;20107;-39
2023/04/30 03:26:04;;;;;;;12.60;9.05;;;9.80;99.90;;;9.26;100.00;97520.75;5057926;28;20071;-38
2023/04/30 03:28:30;;;;;;;11.60;8.38;;;9.70;99.90;;;9.24;100.00;97519.03;5058616;28;20059;-39
2023/04/30 03:30:56;;;;;;;11.43;8.25;;;9.70;99.90;;;9.23;100.00;97525.25;5057570;28;20484;-39
2023/04/30 03:33:21;;;;;;;9.25;7.45;;;9.70;99.90;;;9.22;100.00;97518.22;5060483;28;20338;-38
2023/04/30 03:35:49;;;;;;;14.48;8.80;;;9.70;99.90;;;9.19;100.00;97519.19;5056773;28;20045;-39
2023/04/30 03:38:15;;;;;;;10.93;8.27;;;9.70;99.90;;;9.20;100.00;97520.06;5037713;28;20050;-38
2023/04/30 03:40:40;;;;;;;11.35;7.57;;;9.70;99.90;;;9.15;100.00;97522.81;5056652;28;20429;-38
2023/04/30 03:43:06;;;;;;;11.80;8.82;;;9.70;99.90;;;9.13;100.00;97520.25;5060317;28;20028;-38
2023/04/30 03:45:32;;;;;;;11.48;8.27;;;9.70;99.90;;;9.07;100.00;97523.03;5055568;28;20028;-38
2023/04/30 03:47:58;;;;;;;10.32;7.40;;;9.60;99.90;;;9.03;100.00;97518.78;5056472;28;20051;-38
2023/04/30 03:50:23;;;;;;;11.15;8.38;;;9.50;99.90;;;9.01;100.00;97525.88;5055979;28;20037;-38
2023/04/30 03:52:49;;;;;;;12.60;7.90;;;9.50;99.90;;;9.02;100.00;97521.44;5038497;28;20496;-38
2023/04/30 03:55:15;;;;;;;14.50;8.38;;;9.50;99.90;;;8.97;100.00;97522.47;5055133;28;20028;-38
2023/04/30 03:57:41;;;;;;;10.00;7.57;;;9.50;99.90;;;8.97;100.00;97524.19;5057355;28;20554;-38
2023/04/30 04:00:12;;;;;;;11.48;7.82;;;9.50;99.90;;;8.97;100.00;97529.47;5055610;28;20115;-38
2023/04/30 04:02:38;;;;;;;11.07;7.95;;;9.50;99.90;;;8.87;100.00;97504.34;5057866;28;20539;-39
2023/04/30 04:05:05;;;;;;;13.88;8.85;;;9.40;99.90;;;8.94;100.00;97525.16;5037677;28;20028;-38
2023/04/30 04:07:30;;;;;;;11.43;8.35;;;9.50;99.90;;;8.90;100.00;97513.00;5056619;28;20391;-38
2023/04/30 04:09:56;;;;;;;10.48;7.68;;;9.40;99.90;;;8.92;100.00;97516.47;5054950;28;20032;-38
2023/04/30 04:12:22;;;;;;;9.02;7.50;;;9.40;99.90;;;8.93;100.00;97525.19;5055648;28;20037;-39
2023/04/30 04:14:48;;;;;;;11.65;8.75;;;9.40;99.90;;;8.95;100.00;97531.28;5054701;28;20035;-39
2023/04/30 04:17:14;;;;;;;13.10;9.23;;;9.50;99.90;;;8.96;100.00;97527.75;5055440;28;20020;-38
2023/04/30 04:19:39;;;;;;;11.48;8.25;;;9.50;99.90;;;9.02;100.00;97537.22;5054327;28;20342;-39
2023/04/30 04:22:06;;;;;;;11.05;8.55;;;9.50;99.90;;;9.01;100.00;97532.88;5054622;28;20518;-38
2023/04/30 04:24:32;;;;;;;12.30;8.45;;;9.50;99.90;;;9.06;100.00;97542.38;5055115;28;20123;-38
2023/04/30 04:26:58;;;;;;;12.35;8.88;;;9.60;99.90;;;9.07;100.00;97535.34;5057010;28;20020;-38
2023/04/30 04:29:24;;;;;;;12.38;8.73;;;9.60;99.90;;;8.98;100.00;97524.16;5055519;28;20450;-39
2023/04/30 04:31:50;;;;;;;11.65;8.52;;;9.60;99.90;;;9.13;100.00;97540.41;5053704;28;20036;-39
2023/04/30 04:34:16;;;;;;;12.10;8.48;;;9.60;99.90;;;9.15;100.00;97541.22;5056257;28;20044;-39
2023/04/30 04:36:42;;;;;;;12.30;8.38;;;9.60;99.90;;;9.18;100.00;97536.72;5053358;28;20078;-39
2023/04/30 04:39:07;;;;;;;10.60;7.53;;;9.70;99.90;;;9.17;100.00;97540.28;5056228;28;20058;-38
2023/04/30 04:41:37;;;;;;;10.57;8.25;;;9.70;99.90;;;9.26;100.00;97538.28;5054055;28;20357;-38
2023/04/30 04:44:03;;;;;;;11.85;8.45;;;9.70;99.90;;;9.30;100.00;97545.19;5057790;28;20044;-39
2023/04/30 04:46:30;;;;;;;9.75;7.85;;;9.80;99.90;;;9.33;100.00;97547.72;5056696;28;20059;-39
2023/04/30 04:48:56;;;;;;;10.38;7.50;;;9.80;99.90;;;9.30;100.00;97546.06;5052858;28;20326;-39
2023/04/30 04:51:22;;;;;;;11.68;8.05;;;9.80;99.90;;;9.36;100.00;97551.13;5055723;28;20108;-39
2023/04/30 04:53:48;;;;;;;12.75;9.05;;;9.80;99.90;;;9.41;100.00;97545.72;5052826;28;20659;-39
2023/04/30 04:56:14;;;;;;;10.63;7.82;;;9.90;99.90;;;9.47;100.00;97555.22;5058005;28;20020;-39
2023/04/30 04:58:41;;;;;;;12.13;8.50;;;9.90;99.90;;;9.53;100.00;97544.50;5055403;28;20404;-38
2023/04/30 05:01:08;;;;;;;10.55;7.95;;;10.00;99.90;;;9.58;100.00;97547.00;5054869;28;20031;-39
2023/04/30 05:03:35;;;;;;;11.05;8.48;;;10.00;99.90;;;9.59;100.00;97536.41;5056187;28;20047;-38
2023/04/30 05:06:02;;;;;;;14.98;9.95;;;10.10;99.90;;;9.68;100.00;97546.66;5055386;28;20066;-39
2023/04/30 05:08:28;;;;;;;11.38;8.40;;;10.10;99.90;;;9.71;100.00;97549.22;5055538;28;20614;-40
2023/04/30 05:10:53;;;;;;;10.00;7.47;;;10.20;99.90;;;9.78;100.00;97541.09;5055686;28;21030;-40
2023/04/30 05:13:20;;;;;;;10.75;7.63;;;10.20;99.90;;;9.87;100.00;97544.31;5055713;28;20040;-39
2023/04/30 05:15:46;;;;;;;10.27;7.75;;;10.30;99.90;;;9.94;100.00;97548.50;5054516;28;20044;-38
2023/04/30 05:18:12;;;;;;;10.85;7.15;;;10.40;99.90;;;10.01;100.00;97548.28;5053893;28;20473;-39
2023/04/30 05:20:37;;;;;;;10.95;7.72;;;10.40;99.90;;;10.03;100.00;97543.81;5052205;28;20044;-39
2023/04/30 05:23:03;;;;;;;11.80;8.68;;;10.40;99.90;;;10.10;100.00;97548.84;5054433;28;20036;-38
2023/04/30 05:25:29;;;;;;;13.23;8.20;;;10.50;99.90;;;10.15;100.00;97548.69;5054944;28;20070;-38
2023/04/30 05:27:55;;;;;;;9.88;7.85;;;10.60;99.90;;;10.20;100.00;97549.41;5055065;28;20201;-38
2023/04/30 05:30:21;;;;;;;10.05;7.50;;;10.60;99.90;;;10.28;100.00;97542.13;5054640;28;20036;-39
2023/04/30 05:32:50;;;;;;;10.93;7.82;;;10.70;99.90;;;10.37;100.00;97554.13;5055745;28;20043;-39
2023/04/30 05:35:17;;;;;;;9.80;7.28;;;10.80;99.90;;;10.51;100.00;97551.03;5056449;28;20539;-39
2023/04/30 05:37:43;;;;;;;12.02;8.25;;;10.90;99.90;;;10.62;100.00;97554.19;5053785;28;20060;-39
2023/04/30 05:40:09;;;;;;;10.98;7.78;;;11.10;99.90;;;10.74;100.00;97555.50;5052785;28;20139;-40
2023/04/30 05:42:37;;;;;;;10.32;8.23;;;11.20;99.90;;;10.83;100.00;97551.69;5036623;28;20046;-40
2023/04/30 05:45:03;;;;;;;11.40;8.02;;;11.30;99.90;;;10.88;100.00;97547.13;5057074;28;20036;-40
2023/04/30 05:47:28;;;;;;;9.73;7.20;;;11.40;99.90;;;11.05;100.00;97557.94;5054875;28;20052;-39
2023/04/30 05:49:56;;;;;;;9.27;6.97;;;11.40;99.90;;;11.13;100.00;97549.72;5052501;28;20040;-38
2023/04/30 05:52:22;;;;;;;11.73;8.48;;;11.50;99.90;;;11.17;100.00;97556.63;5056390;28;20062;-38
2023/04/30 05:54:48;;;;;;;9.00;7.07;;;11.60;99.90;;;11.24;100.00;97554.63;5051802;28;20098;-39
2023/04/30 05:57:13;;;;;;;10.40;7.60;;;11.60;99.90;;;11.33;100.00;97553.41;5057079;28;20079;-39
2023/04/30 05:59:39;;;;;;;11.85;8.18;;;11.70;99.90;;;11.35;100.00;97551.56;5055099;28;20251;-39
2023/04/30 06:02:05;;;;;;;12.02;7.18;;;11.80;99.90;;;11.46;100.00;97552.88;5057166;28;20510;-39
2023/04/30 06:04:31;;;;;;;9.25;6.40;;;11.90;99.90;;;11.59;100.00;97557.69;5054644;28;20040;-39
2023/04/30 06:06:57;;;;;;;9.90;7.65;;;12.00;99.90;;;11.70;100.00;97554.63;5054804;28;20027;-39
2023/04/30 06:09:23;;;;;;;9.52;7.22;;;12.10;99.90;;;11.79;100.00;97560.44;5053444;28;20050;-38
2023/04/30 06:11:50;;;;;;;10.63;7.22;;;12.20;99.90;;;11.83;100.00;97559.38;5052930;28;20492;-41
2023/04/30 06:14:17;;;;;;;10.40;7.13;;;12.20;99.90;;;11.88;100.00;97553.94;5054784;28;20033;-38
2023/04/30 06:16:44;;;;;;;9.02;6.05;;;12.30;99.90;;;11.95;100.00;97554.56;5036746;28;20549;-39
2023/04/30 06:19:10;;;;;;;11.50;7.75;;;12.40;99.90;;;12.03;100.00;97568.34;5058094;28;20281;-39
2023/04/30 06:21:36;;;;;;;8.80;6.22;;;12.50;99.90;;;12.14;100.00;97559.97;5053031;28;20032;-39
2023/04/30 06:24:02;;;;;;;10.50;7.35;;;12.60;99.90;;;12.30;100.00;97573.44;5058609;28;20566;-39
2023/04/30 06:26:28;;;;;;;10.15;6.93;;;12.70;99.90;;;12.42;100.00;97570.28;5058245;28;20338;-39
2023/04/30 06:28:53;;;;;;;19.00;7.93;;;12.80;99.90;;;12.49;100.00;97576.16;5056310;28;21004;-38
2023/04/30 06:31:20;;;;;;;8.52;6.78;;;12.90;99.90;;;12.55;100.00;97565.34;5057442;28;20107;-39
2023/04/30 06:33:45;;;;;;;10.45;7.70;;;13.00;99.90;;;12.56;100.00;97567.03;5057204;28;20070;-39
2023/04/30 06:36:12;;;;;;;9.05;6.63;;;13.10;99.90;;;12.68;100.00;97569.16;5057325;28;20037;-39
2023/04/30 06:38:37;;;;;;;11.43;7.55;;;13.10;99.90;;;12.71;100.00;97570.84;5055389;28;20029;-40
2023/04/30 06:41:03;;;;;;;9.68;7.28;;;13.10;99.90;;;12.71;100.00;97569.03;5056576;28;20016;-39
2023/04/30 06:43:29;;;;;;;9.07;6.70;;;13.10;99.90;;;12.76;100.00;97569.72;5057129;28;20025;-40
2023/04/30 06:45:54;;;;;;;9.63;7.28;;;13.10;99.90;;;12.81;100.00;97574.78;5057745;28;20040;-39
2023/04/30 06:48:20;;;;;;;9.63;6.88;;;13.30;99.90;;;12.92;100.00;97566.38;5059893;28;20039;-40
2023/04/30 06:50:46;;;;;;;8.95;7.05;;;13.30;99.90;;;12.96;100.00;97574.13;5057133;28;20028;-39
2023/04/30 06:53:12;;;;;;;11.25;7.40;;;13.30;99.90;;;12.94;100.00;97575.16;5058364;28;20040;-41
2023/04/30 06:55:38;;;;;;;9.90;7.07;;;13.30;99.90;;;13.05;100.00;97572.88;5058967;28;20893;-39
2023/04/30 06:58:06;;;;;;;9.07;6.75;;;13.40;99.90;;;13.20;100.00;97573.13;5059877;28;20121;-40
2023/04/30 07:00:33;;;;;;;9.93;6.50;;;13.50;99.90;;;13.25;100.00;97579.06;5058220;28;20031;-40
2023/04/30 07:03:01;;;;;;;9.85;6.72;;;13.60;99.90;;;13.23;100.00;97581.78;5041871;28;20020;-40
2023/04/30 07:05:28;;;;;;;9.25;6.80;;;13.60;99.90;;;13.27;100.00;97575.41;5038208;28;20064;-39
2023/04/30 07:07:53;;;;;;;9.35;6.97;;;13.70;99.90;;;13.25;100.00;97576.44;5057364;28;20527;-39
2023/04/30 07:10:19;;;;;;;9.38;6.97;;;13.70;99.90;;;13.27;100.00;97567.47;5057915;28;20048;-39
2023/04/30 07:12:45;;;;;;;10.13;7.28;;;13.80;99.90;;;13.25;100.00;97561.38;5058190;28;20063;-39
2023/04/30 07:15:10;;;;;;;9.35;6.60;;;13.80;99.90;;;13.41;98.10;97566.88;5055497;28;20579;-41
2023/04/30 07:17:37;;;;;;;9.82;6.45;;;13.90;99.90;;;13.47;95.70;97563.09;5056345;28;20041;-39
2023/04/30 07:20:04;;;;;;;8.23;6.57;;;13.90;99.90;;;13.65;96.67;97556.06;5056423;28;20512;-39
2023/04/30 07:22:30;;;;;;;9.77;6.82;;;14.10;99.90;;;13.70;95.97;97562.03;5056601;28;20028;-39
2023/04/30 07:24:56;;;;;;;11.07;6.80;;;14.20;99.90;;;13.77;92.93;97562.59;5054173;28;20036;-39
2023/04/30 07:27:22;;;;;;;8.02;6.10;;;14.20;99.90;;;13.80;91.92;97565.97;5057612;28;20020;-38
2023/04/30 07:29:48;;;;;;;8.75;5.78;;;14.20;99.90;;;13.67;92.21;97565.66;5039466;28;20039;-38
2023/04/30 07:32:15;;;;;;;9.02;6.28;;;14.10;99.90;;;13.58;95.42;97566.09;5052749;28;20566;-39
2023/04/30 07:34:41;;;;;;;9.55;6.03;;;14.00;99.90;;;13.63;96.47;97572.03;5055385;28;20040;-39
2023/04/30 07:37:08;;;;;;;7.60;6.25;;;14.00;99.90;;;13.70;98.87;97562.03;5057710;28;20499;-40
2023/04/30 07:39:35;;;;;;;8.48;5.63;;;14.00;99.90;;;13.79;100.00;97551.00;5037828;28;20447;-39
2023/04/30 07:42:02;;;;;;;9.30;6.85;;;14.20;99.90;;;13.80;96.54;97544.75;5057332;28;20172;-39
2023/04/30 07:44:29;;;;;;;9.23;5.93;;;14.20;99.90;;;14.00;95.35;97564.13;5055590;28;20029;-40
2023/04/30 07:46:55;;;;;;;8.38;5.68;;;14.40;99.90;;;14.17;93.58;97558.03;5056609;28;20033;-39
2023/04/30 07:49:20;;;;;;;7.90;6.07;;;14.50;99.90;;;14.11;90.78;97556.53;5058385;28;20254;-39
2023/04/30 07:51:46;;;;;;;8.70;6.53;;;14.50;99.90;;;14.20;87.57;97556.09;5058009;28;20730;-39
2023/04/30 07:54:12;;;;;;;8.00;5.72;;;14.60;99.90;;;14.17;89.25;97547.41;5055525;28;20037;-40
2023/04/30 07:56:38;;;;;;;7.38;5.63;;;14.60;99.90;;;14.17;86.47;97539.47;5055330;28;20028;-40
2023/04/30 07:59:04;;;;;;;8.98;5.60;;;14.60;99.90;;;14.13;84.82;97544.91;5054801;28;20055;-39
2023/04/30 08:01:30;;;;;;;7.53;5.55;;;14.60;99.90;;;14.00;87.33;97548.22;5055302;28;20472;-39
2023/04/30 08:03:56;;;;;;;7.72;4.95;;;14.50;99.90;;;14.00;89.07;97551.75;5054686;28;20032;-39
2023/04/30 08:06:22;;;;;;;8.18;5.85;;;14.40;99.90;;;13.91;85.90;97539.81;5049144;28;20036;-38
2023/04/30 08:08:47;;;;;;;10.57;5.50;;;14.40;99.90;;;13.84;83.46;97553.44;5051467;28;20085;-39
2023/04/30 08:11:14;;;;;;;8.07;6.05;;;14.30;99.90;;;13.86;87.10;97547.13;5055500;28;20032;-38
2023/04/30 08:13:41;;;;;;;8.35;5.50;;;14.30;99.90;;;13.93;87.15;97551.19;5054876;28;20025;-39
2023/04/30 08:16:07;;;;;;;7.75;5.90;;;14.30;99.90;;;13.86;87.53;97549.75;5054906;28;20627;-39
2023/04/30 08:18:32;;;;;;;6.65;5.07;;;14.30;99.90;;;13.81;88.42;97535.88;5057221;28;20032;-38
2023/04/30 08:20:59;;;;;;;7.85;5.00;;;14.40;99.90;;;14.02;88.26;97538.44;5054425;28;20576;-39
2023/04/30 08:23:26;;;;;;;5.80;4.43;;;14.40;99.90;;;14.23;91.91;97545.34;5038958;28;20029;-39
2023/04/30 08:25:51;;;;;;;5.13;4.63;;;14.60;99.90;;;14.32;84.75;97541.38;5057610;28;20086;-39
2023/04/30 08:28:17;;;;;;;7.13;5.10;;;14.70;99.90;;;14.19;83.30;97540.25;5050950;28;20044;-39
2023/04/30 08:30:43;;;;;;;6.10;4.88;;;14.70;99.90;;;14.33;77.27;97551.03;5054611;28;20032;-39
2023/04/30 08:33:09;;;;;;;5.38;4.22;;;14.70;99.90;;;14.45;74.63;97554.88;5055346;28;20280;-39
2023/04/30 08:35:35;;;;;;;4.80;3.83;;;14.90;99.90;;;14.50;75.71;97550.22;5056322;28;20128;-41
2023/04/30 08:38:01;;;;;;;5.53;4.40;;;14.90;99.90;;;14.45;71.14;97550.41;5052833;28;20045;-39
2023/04/30 08:40:27;;;;;;;9.55;3.90;;;15.00;99.90;;;14.64;72.13;97547.75;5057941;28;20037;-39
2023/04/30 08:43:04;;;;;;;5.75;4.47;;;15.10;99.90;;;14.92;76.75;97543.66;5055824;28;20024;-39
2023/04/30 08:45:32;;;;;;;5.55;4.65;;;15.40;99.90;;;15.27;71.08;97556.84;5056942;28;20064;-41
2023/04/30 08:47:59;;;;;;;5.47;4.10;;;15.70;99.90;;;15.46;63.51;97546.09;5053335;28;20032;-41
2023/04/30 08:50:29;;;;;;;4.97;3.95;;;15.90;99.90;;;15.55;63.44;97544.75;5055109;28;20491;-39
2023/04/30 08:52:56;;;;;;;6.68;2.95;;;16.10;99.90;;;15.81;64.34;97544.19;5057350;28;20037;-39
2023/04/30 08:55:22;;;;;;;4.72;3.00;;;16.30;99.90;;;16.23;62.08;97552.50;5055962;28;20297;-40
2023/04/30 08:57:48;;;;;;;5.85;3.25;;;16.50;99.90;;;16.26;57.07;97552.31;5055962;28;20104;-39
2023/04/30 09:00:13;;;;;;;5.00;2.78;;;16.80;99.90;;;16.39;54.94;97549.81;5056312;28;20036;-39
2023/04/30 09:02:43;;;;;;;3.88;2.60;;;16.90;99.90;;;16.55;53.21;97547.97;5039628;28;20076;-40
2023/04/30 09:05:12;;;;;;;3.85;2.80;;;17.10;99.90;;;16.65;57.02;97545.59;5049444;28;20029;-39
2023/04/30 09:07:43;;;;;;;2.80;2.47;;;17.20;99.90;;;16.77;53.33;97555.53;5032214;28;20303;-39
2023/04/30 09:10:19;;;;;;;3.40;2.58;;;17.30;99.90;;;16.61;51.44;97550.25;5055889;28;20166;-39
2023/04/30 09:13:06;;;;;;;2.53;2.20;;;17.20;99.90;;;16.54;52.16;97554.22;5055425;28;20048;-38
2023/04/30 09:15:35;;;;;;;4.13;2.45;;;17.10;99.90;;;16.36;52.07;97547.31;5051536;28;20031;-39
2023/04/30 09:18:16;;;;;;;3.10;2.72;;;17.00;99.90;;;16.15;52.92;97557.38;5053620;28;20392;-39
2023/04/30 09:21:04;;;;;;;4.68;3.10;;;16.80;99.90;;;16.05;53.64;97542.91;5054363;28;20480;-40
2023/04/30 09:23:30;;;;;;;3.40;2.65;;;16.70;99.90;;;16.15;54.82;97547.63;5057863;28;20064;-39
2023/04/30 09:25:56;;;;;;;2.92;2.50;;;16.80;99.90;;;16.47;52.33;97552.00;5055620;28;20490;-41
2023/04/30 09:28:25;;;;;;;3.72;2.50;;;17.00;99.90;;;16.56;53.25;97554.13;5057894;28;20347;-39
2023/04/30 09:30:51;;;;;;;4.82;2.83;;;17.20;99.90;;;16.67;52.79;97540.19;5053464;28;20235;-42
2023/04/30 09:33:18;;;;;;;3.50;2.25;;;17.40;99.90;;;16.98;49.06;97545.44;5056269;28;20036;-39
2023/04/30 09:35:44;;;;;;;2.90;2.22;;;17.60;99.20;;;17.23;49.44;97546.59;5052320;28;20070;-38
2023/04/30 09:38:33;;;;;;;3.42;2.10;;;17.80;99.10;;;17.51;47.54;97551.06;5054577;28;20510;-40
2023/04/30 09:41:00;;;;;;;3.75;2.10;;;18.20;97.90;;;17.69;46.80;97548.19;5043189;28;20403;-39
2023/04/30 09:43:30;;;;;;;2.75;1.98;;;18.30;97.20;;;17.69;45.87;97556.19;5052652;28;20025;-38
2023/04/30 09:45:58;;;;;;;2.70;2.22;;;18.30;96.30;;;17.73;45.96;97553.25;5055734;28;20032;-39
2023/04/30 09:48:28;;;;;;;3.05;2.30;;;18.40;96.10;;;17.63;45.97;97548.59;5057169;28;20512;-38
2023/04/30 09:50:54;;;;;;;2.53;2.03;;;18.40;95.70;;;17.81;47.75;97543.91;5051664;28;20236;-39
2023/04/30 09:53:20;;;;;;;4.35;2.00;;;18.40;96.20;;;17.79;45.75;97549.34;5061630;28;20070;-39
2023/04/30 09:55:49;;;;;;;2.65;2.20;;;18.50;95.60;;;17.99;45.68;97544.56;5060256;28;20028;-38
2023/04/30 09:58:16;;;;;;;4.45;2.05;;;18.50;95.30;;;17.92;45.47;97544.94;5041099;28;20082;-38
2023/04/30 10:00:44;;;;;;;2.60;2.10;;;18.50;94.90;;;17.77;45.63;97539.72;5059379;28;20027;-38
2023/04/30 10:03:12;;;;;;;2.13;1.83;;;18.40;94.40;;;17.86;45.52;97541.84;5060328;28;20064;-38
2023/04/30 10:05:46;;;;;;;5.28;2.08;;;18.40;94.30;;;17.89;44.66;97544.28;5057095;28;20135;-38
2023/04/30 10:08:26;;;;;;;2.38;2.10;;;18.40;94.00;;;17.60;44.16;97541.63;5059091;28;20419;-38
2023/04/30 10:11:02;;;;;;;2.30;1.60;;;18.30;93.80;;;17.60;46.08;97544.28;5039907;28;20032;-37
2023/04/30 10:13:32;;;;;;;2.05;1.65;;;18.20;94.50;;;17.64;46.27;97535.16;5061443;28;20400;-39
2023/04/30 10:16:04;;;;;;;2.03;1.63;;;18.20;94.50;;;17.94;48.42;97526.16;5040002;28;20075;-38
2023/04/30 10:18:37;;;;;;;3.90;1.92;;;18.40;96.20;;;18.16;45.73;97539.00;5041867;28;20035;-39